To NAV CANADA Home Page Login to a new session Search on AWWS site Feedback and Comments Disclaimer Vers la page française équivalente Tips FAQ What's new on the site To the Forecasts and Observations / NOTAM section To "File a Flight Plan" website Publications and other links Update of the User's profile FIC Telephone Numbers My Weather Data Folder Route Weather Data Regional Weather Data Local Weather Data To the Forecasts and Observations / NOTAM section
Request Generated 02/14/2016 at 16:41:50 UTC . Weather information available at that time is displayed.

METAR/TAF

CAPE DORSET/NU    

METAR CYTE 141600Z AUTO 34004KT 310V020 9SM CLR M22/M25 A2990 RMK
SLP134=
METAR CYTE 141500Z AUTO 34005KT 9SM CLR M22/M25 A2991 RMK SLP137=
METAR CYTE 141400Z AUTO VRB02KT 9SM CLR M22/M24 A2993 RMK SLP143=

TAF CYTE 141238Z 1413/1501 VRB03KT P6SM FEW008 TEMPO 1413/1418 5SM
-SN BKN008
BECMG 1413/1415 33008KT
FM141800 33012KT P6SM SCT015 BKN090 TEMPO 1418/1501 5SM -SN
BKN015 BKN090
RMK FCST BASED ON AUTO OBS. NXT FCST BY 141900Z=
Your time UTC time
Weather data provided by Environment Canada and NAV CANADA